sensor_id;sensor_type;location;lat;lon;timestamp;P1;P2;P0
54869;PMS5003;40756;-37.950;145.008;2023-04-22T00:00:07;2;2;
54869;PMS5003;40756;-37.950;145.008;2023-04-22T00:02:38;5;5;
54869;PMS5003;40756;-37.950;145.008;2023-04-22T00:05:08;1;1;
54869;PMS5003;40756;-37.950;145.008;2023-04-22T00:07:38;2;2;
54869;PMS5003;40756;-37.950;145.008;2023-04-22T00:10:07;3;3;
54869;PMS5003;40756;-37.950;145.008;2023-04-22T00:12:37;3;3;
54869;PMS5003;40756;-37.950;145.008;2023-04-22T00:15:08;2;1;
54869;PMS5003;40756;-37.950;145.008;2023-04-22T00:17:38;1;1;
54869;PMS5003;40756;-37.950;145.008;2023-04-22T00:20:08;2;2;
54869;PMS5003;40756;-37.950;145.008;2023-04-22T00:22:39;2;2;
54869;PMS5003;40756;-37.950;145.008;2023-04-22T00:25:09;1;1;
54869;PMS5003;40756;-37.950;145.008;2023-04-22T00:27:38;2;2;
54869;PMS5003;40756;-37.950;145.008;2023-04-22T00:30:08;0;0;
54869;PMS5003;40756;-37.950;145.008;2023-04-22T00:32:38;1;1;
54869;PMS5003;40756;-37.950;145.008;2023-04-22T00:35:08;1;0;
54869;PMS5003;40756;-37.950;145.008;2023-04-22T00:37:37;1;1;
54869;PMS5003;40756;-37.950;145.008;2023-04-22T00:40:07;2;2;
54869;PMS5003;40756;-37.950;145.008;2023-04-22T00:42:38;2;1;
54869;PMS5003;40756;-37.950;145.008;2023-04-22T00:45:10;2;2;
54869;PMS5003;40756;-37.950;145.008;2023-04-22T00:47:42;1;1;
54869;PMS5003;40756;-37.950;145.008;2023-04-22T00:50:12;2;2;
54869;PMS5003;40756;-37.950;145.008;2023-04-22T00:52:42;1;1;
54869;PMS5003;40756;-37.950;145.008;2023-04-22T00:55:11;1;1;
54869;PMS5003;40756;-37.950;145.008;2023-04-22T00:57:41;2;2;
54869;PMS5003;40756;-37.950;145.008;2023-04-22T01:00:10;2;2;
54869;PMS5003;40756;-37.950;145.008;2023-04-22T01:02:40;1;1;
54869;PMS5003;40756;-37.950;145.008;2023-04-22T01:05:09;1;1;
54869;PMS5003;40756;-37.950;145.008;2023-04-22T01:07:40;1;1;
54869;PMS5003;40756;-37.950;145.008;2023-04-22T01:10:10;3;3;
54869;PMS5003;40756;-37.950;145.008;2023-04-22T01:12:39;1;1;
54869;PMS5003;40756;-37.950;145.008;2023-04-22T01:15:09;3;3;
54869;PMS5003;40756;-37.950;145.008;2023-04-22T01:17:39;3;3;
54869;PMS5003;40756;-37.950;145.008;2023-04-22T01:20:09;5;5;
54869;PMS5003;40756;-37.950;145.008;2023-04-22T01:22:40;5;5;
54869;PMS5003;40756;-37.950;145.008;2023-04-22T01:25:11;4;3;
54869;PMS5003;40756;-37.950;145.008;2023-04-22T01:27:40;4;4;
54869;PMS5003;40756;-37.950;145.008;2023-04-22T01:30:11;4;4;
54869;PMS5003;40756;-37.950;145.008;2023-04-22T01:32:40;4;4;
54869;PMS5003;40756;-37.950;145.008;2023-04-22T01:35:11;5;4;
54869;PMS5003;40756;-37.950;145.008;2023-04-22T01:37:41;5;4;
54869;PMS5003;40756;-37.950;145.008;2023-04-22T01:40:11;3;3;
54869;PMS5003;40756;-37.950;145.008;2023-04-22T01:42:42;4;4;
54869;PMS5003;40756;-37.950;145.008;2023-04-22T01:45:12;3;3;
54869;PMS5003;40756;-37.950;145.008;2023-04-22T01:47:41;3;2;
54869;PMS5003;40756;-37.950;145.008;2023-04-22T01:50:11;3;3;
54869;PMS5003;40756;-37.950;145.008;2023-04-22T01:52:40;2;2;
54869;PMS5003;40756;-37.950;145.008;2023-04-22T01:55:10;3;3;
54869;PMS5003;40756;-37.950;145.008;2023-04-22T01:57:39;2;2;
54869;PMS5003;40756;-37.950;145.008;2023-04-22T02:00:09;2;2;
54869;PMS5003;40756;-37.950;145.008;2023-04-22T02:02:39;2;2;
54869;PMS5003;40756;-37.950;145.008;2023-04-22T02:05:09;2;2;
54869;PMS5003;40756;-37.950;145.008;2023-04-22T02:07:38;2;2;
54869;PMS5003;40756;-37.950;145.008;2023-04-22T02:10:08;2;2;
54869;PMS5003;40756;-37.950;145.008;2023-04-22T02:12:38;2;2;
54869;PMS5003;40756;-37.950;145.008;2023-04-22T02:15:08;2;2;
54869;PMS5003;40756;-37.950;145.008;2023-04-22T02:17:39;3;2;
54869;PMS5003;40756;-37.950;145.008;2023-04-22T02:20:10;1;1;
54869;PMS5003;40756;-37.950;145.008;2023-04-22T02:22:40;1;1;
54869;PMS5003;40756;-37.950;145.008;2023-04-22T02:25:11;3;3;
54869;PMS5003;40756;-37.950;145.008;2023-04-22T02:27:40;2;2;
54869;PMS5003;40756;-37.950;145.008;2023-04-22T02:30:10;2;1;
54869;PMS5003;40756;-37.950;145.008;2023-04-22T02:32:39;3;3;
54869;PMS5003;40756;-37.950;145.008;2023-04-22T02:35:09;3;3;
54869;PMS5003;40756;-37.950;145.008;2023-04-22T02:37:39;3;3;
54869;PMS5003;40756;-37.950;145.008;2023-04-22T02:40:09;2;2;
54869;PMS5003;40756;-37.950;145.008;2023-04-22T02:42:39;2;2;
54869;PMS5003;40756;-37.950;145.008;2023-04-22T02:45:09;3;3;
54869;PMS5003;40756;-37.950;145.008;2023-04-22T02:47:39;3;3;
54869;PMS5003;40756;-37.950;145.008;2023-04-22T02:50:09;3;3;
54869;PMS5003;40756;-37.950;145.008;2023-04-22T02:52:39;3;3;
54869;PMS5003;40756;-37.950;145.008;2023-04-22T02:55:09;3;3;
54869;PMS5003;40756;-37.950;145.008;2023-04-22T02:57:38;2;2;
54869;PMS5003;40756;-37.950;145.008;2023-04-22T03:00:08;3;3;
54869;PMS5003;40756;-37.950;145.008;2023-04-22T03:02:38;0;0;
54869;PMS5003;40756;-37.950;145.008;2023-04-22T03:05:07;1;1;
54869;PMS5003;40756;-37.950;145.008;2023-04-22T03:07:37;1;1;
54869;PMS5003;40756;-37.950;145.008;2023-04-22T03:10:07;2;1;
54869;PMS5003;40756;-37.950;145.008;2023-04-22T03:12:37;4;3;
54869;PMS5003;40756;-37.950;145.008;2023-04-22T03:15:06;4;3;
54869;PMS5003;40756;-37.950;145.008;2023-04-22T03:17:36;2;1;
54869;PMS5003;40756;-37.950;145.008;2023-04-22T03:20:06;2;2;
54869;PMS5003;40756;-37.950;145.008;2023-04-22T03:22:36;2;2;
54869;PMS5003;40756;-37.950;145.008;2023-04-22T03:25:07;0;0;
54869;PMS5003;40756;-37.950;145.008;2023-04-22T03:27:37;0;0;
54869;PMS5003;40756;-37.950;145.008;2023-04-22T03:30:07;1;1;
54869;PMS5003;40756;-37.950;145.008;2023-04-22T03:32:37;2;1;
54869;PMS5003;40756;-37.950;145.008;2023-04-22T03:35:07;2;2;
54869;PMS5003;40756;-37.950;145.008;2023-04-22T03:37:37;1;1;
54869;PMS5003;40756;-37.950;145.008;2023-04-22T03:40:07;1;1;
54869;PMS5003;40756;-37.950;145.008;2023-04-22T03:42:37;2;2;
54869;PMS5003;40756;-37.950;145.008;2023-04-22T03:45:07;3;3;
54869;PMS5003;40756;-37.950;145.008;2023-04-22T03:47:37;2;2;
54869;PMS5003;40756;-37.950;145.008;2023-04-22T03:50:07;3;3;
54869;PMS5003;40756;-37.950;145.008;2023-04-22T03:52:37;0;0;
54869;PMS5003;40756;-37.950;145.008;2023-04-22T03:55:07;3;2;
54869;PMS5003;40756;-37.950;145.008;2023-04-22T03:57:37;1;1;
54869;PMS5003;40756;-37.950;145.008;2023-04-22T04:00:07;1;1;
54869;PMS5003;40756;-37.950;145.008;2023-04-22T04:02:37;2;2;
54869;PMS5003;40756;-37.950;145.008;2023-04-22T04:05:06;2;2;
54869;PMS5003;40756;-37.950;145.008;2023-04-22T04:07:37;2;2;
54869;PMS5003;40756;-37.950;145.008;2023-04-22T04:10:07;0;0;
54869;PMS5003;40756;-37.950;145.008;2023-04-22T04:12:36;1;1;
54869;PMS5003;40756;-37.950;145.008;2023-04-22T04:15:06;1;1;
54869;PMS5003;40756;-37.950;145.008;2023-04-22T04:17:36;1;1;
54869;PMS5003;40756;-37.950;145.008;2023-04-22T04:20:06;2;2;
54869;PMS5003;40756;-37.950;145.008;2023-04-22T04:22:36;1;1;
54869;PMS5003;40756;-37.950;145.008;2023-04-22T04:25:07;1;1;
54869;PMS5003;40756;-37.950;145.008;2023-04-22T04:27:37;1;1;
54869;PMS5003;40756;-37.950;145.008;2023-04-22T04:30:07;1;1;
54869;PMS5003;40756;-37.950;145.008;2023-04-22T04:32:36;0;0;
54869;PMS5003;40756;-37.950;145.008;2023-04-22T04:35:06;2;2;
54869;PMS5003;40756;-37.950;145.008;2023-04-22T04:37:36;2;2;
54869;PMS5003;40756;-37.950;145.008;2023-04-22T04:40:06;1;1;
54869;PMS5003;40756;-37.950;145.008;2023-04-22T04:42:36;1;1;
54869;PMS5003;40756;-37.950;145.008;2023-04-22T04:45:06;1;1;
54869;PMS5003;40756;-37.950;145.008;2023-04-22T04:47:36;2;2;
54869;PMS5003;40756;-37.950;145.008;2023-04-22T04:50:06;1;1;
54869;PMS5003;40756;-37.950;145.008;2023-04-22T04:52:36;1;1;
54869;PMS5003;40756;-37.950;145.008;2023-04-22T04:55:06;1;1;
54869;PMS5003;40756;-37.950;145.008;2023-04-22T04:57:36;2;2;
54869;PMS5003;40756;-37.950;145.008;2023-04-22T05:00:06;1;1;
54869;PMS5003;40756;-37.950;145.008;2023-04-22T05:02:36;2;2;
54869;PMS5003;40756;-37.950;145.008;2023-04-22T05:05:06;2;2;
54869;PMS5003;40756;-37.950;145.008;2023-04-22T05:07:36;4;3;
54869;PMS5003;40756;-37.950;145.008;2023-04-22T05:10:05;2;1;
54869;PMS5003;40756;-37.950;145.008;2023-04-22T05:12:36;3;2;
54869;PMS5003;40756;-37.950;145.008;2023-04-22T05:15:05;2;2;
54869;PMS5003;40756;-37.950;145.008;2023-04-22T05:17:35;1;1;
54869;PMS5003;40756;-37.950;145.008;2023-04-22T05:20:05;5;4;
54869;PMS5003;40756;-37.950;145.008;2023-04-22T05:22:35;3;3;
54869;PMS5003;40756;-37.950;145.008;2023-04-22T05:25:05;3;3;
54869;PMS5003;40756;-37.950;145.008;2023-04-22T05:27:36;2;2;
54869;PMS5003;40756;-37.950;145.008;2023-04-22T05:30:06;1;1;
54869;PMS5003;40756;-37.950;145.008;2023-04-22T05:32:36;2;2;
54869;PMS5003;40756;-37.950;145.008;2023-04-22T05:35:07;3;2;
54869;PMS5003;40756;-37.950;145.008;2023-04-22T05:37:37;2;2;
54869;PMS5003;40756;-37.950;145.008;2023-04-22T05:40:07;2;2;
54869;PMS5003;40756;-37.950;145.008;2023-04-22T05:42:37;1;1;
54869;PMS5003;40756;-37.950;145.008;2023-04-22T05:45:07;2;2;
54869;PMS5003;40756;-37.950;145.008;2023-04-22T05:47:37;2;2;
54869;PMS5003;40756;-37.950;145.008;2023-04-22T05:50:07;2;2;
54869;PMS5003;40756;-37.950;145.008;2023-04-22T05:52:36;3;3;
54869;PMS5003;40756;-37.950;145.008;2023-04-22T05:55:06;2;2;
54869;PMS5003;40756;-37.950;145.008;2023-04-22T05:57:36;2;2;
54869;PMS5003;40756;-37.950;145.008;2023-04-22T06:00:06;3;3;
54869;PMS5003;40756;-37.950;145.008;2023-04-22T06:02:37;2;2;
54869;PMS5003;40756;-37.950;145.008;2023-04-22T06:05:07;3;3;
54869;PMS5003;40756;-37.950;145.008;2023-04-22T06:07:37;1;1;
54869;PMS5003;40756;-37.950;145.008;2023-04-22T06:10:08;1;1;
54869;PMS5003;40756;-37.950;145.008;2023-04-22T06:12:38;1;1;
54869;PMS5003;40756;-37.950;145.008;2023-04-22T06:15:07;3;3;
54869;PMS5003;40756;-37.950;145.008;2023-04-22T06:17:37;3;3;
54869;PMS5003;40756;-37.950;145.008;2023-04-22T06:20:07;3;2;
54869;PMS5003;40756;-37.950;145.008;2023-04-22T06:22:37;2;2;
54869;PMS5003;40756;-37.950;145.008;2023-04-22T06:25:07;2;2;
54869;PMS5003;40756;-37.950;145.008;2023-04-22T06:27:38;3;3;
54869;PMS5003;40756;-37.950;145.008;2023-04-22T06:30:08;3;3;
54869;PMS5003;40756;-37.950;145.008;2023-04-22T06:32:38;3;3;
54869;PMS5003;40756;-37.950;145.008;2023-04-22T06:35:07;2;2;
54869;PMS5003;40756;-37.950;145.008;2023-04-22T06:37:37;4;4;
54869;PMS5003;40756;-37.950;145.008;2023-04-22T06:40:07;4;4;
54869;PMS5003;40756;-37.950;145.008;2023-04-22T06:42:37;3;3;
54869;PMS5003;40756;-37.950;145.008;2023-04-22T06:45:07;4;4;
54869;PMS5003;40756;-37.950;145.008;2023-04-22T06:47:36;4;4;
54869;PMS5003;40756;-37.950;145.008;2023-04-22T06:50:07;3;2;
54869;PMS5003;40756;-37.950;145.008;2023-04-22T06:52:37;4;4;
54869;PMS5003;40756;-37.950;145.008;2023-04-22T06:55:07;2;2;
54869;PMS5003;40756;-37.950;145.008;2023-04-22T06:57:37;3;3;
54869;PMS5003;40756;-37.950;145.008;2023-04-22T07:00:07;3;3;
54869;PMS5003;40756;-37.950;145.008;2023-04-22T07:02:37;4;4;
54869;PMS5003;40756;-37.950;145.008;2023-04-22T07:05:07;3;3;
54869;PMS5003;40756;-37.950;145.008;2023-04-22T07:07:36;5;4;
54869;PMS5003;40756;-37.950;145.008;2023-04-22T07:10:06;4;4;
54869;PMS5003;40756;-37.950;145.008;2023-04-22T07:12:36;4;4;
54869;PMS5003;40756;-37.950;145.008;2023-04-22T07:15:06;3;3;
54869;PMS5003;40756;-37.950;145.008;2023-04-22T07:17:36;2;2;
54869;PMS5003;40756;-37.950;145.008;2023-04-22T07:20:06;3;3;
54869;PMS5003;40756;-37.950;145.008;2023-04-22T07:22:36;4;4;
54869;PMS5003;40756;-37.950;145.008;2023-04-22T07:25:06;4;4;
54869;PMS5003;40756;-37.950;145.008;2023-04-22T07:27:37;5;5;
54869;PMS5003;40756;-37.950;145.008;2023-04-22T07:30:07;6;5;
54869;PMS5003;40756;-37.950;145.008;2023-04-22T07:32:38;5;5;
54869;PMS5003;40756;-37.950;145.008;2023-04-22T07:35:07;4;4;
54869;PMS5003;40756;-37.950;145.008;2023-04-22T07:37:37;5;4;
54869;PMS5003;40756;-37.950;145.008;2023-04-22T07:40:07;6;5;
54869;PMS5003;40756;-37.950;145.008;2023-04-22T07:42:37;4;4;
54869;PMS5003;40756;-37.950;145.008;2023-04-22T07:45:07;4;4;
54869;PMS5003;40756;-37.950;145.008;2023-04-22T07:47:36;5;5;
54869;PMS5003;40756;-37.950;145.008;2023-04-22T07:50:06;7;7;
54869;PMS5003;40756;-37.950;145.008;2023-04-22T07:52:36;5;5;
54869;PMS5003;40756;-37.950;145.008;2023-04-22T07:55:07;4;4;
54869;PMS5003;40756;-37.950;145.008;2023-04-22T07:57:36;3;3;
54869;PMS5003;40756;-37.950;145.008;2023-04-22T08:00:06;4;4;
54869;PMS5003;40756;-37.950;145.008;2023-04-22T08:02:37;4;3;
54869;PMS5003;40756;-37.950;145.008;2023-04-22T08:05:07;4;4;
54869;PMS5003;40756;-37.950;145.008;2023-04-22T08:07:37;4;4;
54869;PMS5003;40756;-37.950;145.008;2023-04-22T08:10:06;3;3;
54869;PMS5003;40756;-37.950;145.008;2023-04-22T08:12:36;4;3;
54869;PMS5003;40756;-37.950;145.008;2023-04-22T08:15:06;4;4;
54869;PMS5003;40756;-37.950;145.008;2023-04-22T08:17:36;3;3;
54869;PMS5003;40756;-37.950;145.008;2023-04-22T08:20:06;4;3;
54869;PMS5003;40756;-37.950;145.008;2023-04-22T08:22:36;3;3;
54869;PMS5003;40756;-37.950;145.008;2023-04-22T08:25:06;3;3;
54869;PMS5003;40756;-37.950;145.008;2023-04-22T08:27:37;6;4;
54869;PMS5003;40756;-37.950;145.008;2023-04-22T08:30:07;4;4;
54869;PMS5003;40756;-37.950;145.008;2023-04-22T08:32:38;5;5;
54869;PMS5003;40756;-37.950;145.008;2023-04-22T08:35:07;5;4;
54869;PMS5003;40756;-37.950;145.008;2023-04-22T08:37:37;7;7;
54869;PMS5003;40756;-37.950;145.008;2023-04-22T08:40:08;4;4;
54869;PMS5003;40756;-37.950;145.008;2023-04-22T08:42:37;6;5;
54869;PMS5003;40756;-37.950;145.008;2023-04-22T08:45:08;4;4;
54869;PMS5003;40756;-37.950;145.008;2023-04-22T08:47:39;5;5;
54869;PMS5003;40756;-37.950;145.008;2023-04-22T08:50:09;5;5;
54869;PMS5003;40756;-37.950;145.008;2023-04-22T08:52:38;5;4;
54869;PMS5003;40756;-37.950;145.008;2023-04-22T08:55:10;4;4;
54869;PMS5003;40756;-37.950;145.008;2023-04-22T08:57:39;5;5;
54869;PMS5003;40756;-37.950;145.008;2023-04-22T09:00:09;5;5;
54869;PMS5003;40756;-37.950;145.008;2023-04-22T09:02:40;5;4;
54869;PMS5003;40756;-37.950;145.008;2023-04-22T09:05:10;5;5;
54869;PMS5003;40756;-37.950;145.008;2023-04-22T09:07:42;5;5;
54869;PMS5003;40756;-37.950;145.008;2023-04-22T09:10:11;4;4;
54869;PMS5003;40756;-37.950;145.008;2023-04-22T09:12:41;4;4;
54869;PMS5003;40756;-37.950;145.008;2023-04-22T09:15:11;3;3;
54869;PMS5003;40756;-37.950;145.008;2023-04-22T09:17:41;4;3;
54869;PMS5003;40756;-37.950;145.008;2023-04-22T09:20:11;5;5;
54869;PMS5003;40756;-37.950;145.008;2023-04-22T09:22:43;4;4;
54869;PMS5003;40756;-37.950;145.008;2023-04-22T09:25:15;7;6;
54869;PMS5003;40756;-37.950;145.008;2023-04-22T09:27:48;4;4;
54869;PMS5003;40756;-37.950;145.008;2023-04-22T09:30:18;5;5;
54869;PMS5003;40756;-37.950;145.008;2023-04-22T09:32:53;5;5;
54869;PMS5003;40756;-37.950;145.008;2023-04-22T09:35:25;3;3;
54869;PMS5003;40756;-37.950;145.008;2023-04-22T09:37:57;5;5;
54869;PMS5003;40756;-37.950;145.008;2023-04-22T09:40:27;4;4;
54869;PMS5003;40756;-37.950;145.008;2023-04-22T09:42:59;4;4;
54869;PMS5003;40756;-37.950;145.008;2023-04-22T09:45:30;5;5;
54869;PMS5003;40756;-37.950;145.008;2023-04-22T09:48:02;6;5;
54869;PMS5003;40756;-37.950;145.008;2023-04-22T09:50:34;4;4;
54869;PMS5003;40756;-37.950;145.008;2023-04-22T09:53:05;5;5;
54869;PMS5003;40756;-37.950;145.008;2023-04-22T09:55:36;6;6;
54869;PMS5003;40756;-37.950;145.008;2023-04-22T09:58:09;9;8;
54869;PMS5003;40756;-37.950;145.008;2023-04-22T10:00:41;9;9;
54869;PMS5003;40756;-37.950;145.008;2023-04-22T10:03:12;8;8;
54869;PMS5003;40756;-37.950;145.008;2023-04-22T10:05:42;8;8;
54869;PMS5003;40756;-37.950;145.008;2023-04-22T10:08:13;9;9;
54869;PMS5003;40756;-37.950;145.008;2023-04-22T10:10:43;8;7;
54869;PMS5003;40756;-37.950;145.008;2023-04-22T10:13:13;5;5;
54869;PMS5003;40756;-37.950;145.008;2023-04-22T10:15:46;6;6;
54869;PMS5003;40756;-37.950;145.008;2023-04-22T10:18:19;4;4;
54869;PMS5003;40756;-37.950;145.008;2023-04-22T10:20:50;5;5;
54869;PMS5003;40756;-37.950;145.008;2023-04-22T10:23:23;5;5;
54869;PMS5003;40756;-37.950;145.008;2023-04-22T10:25:53;5;5;
54869;PMS5003;40756;-37.950;145.008;2023-04-22T10:28:27;5;4;
54869;PMS5003;40756;-37.950;145.008;2023-04-22T10:30:56;6;6;
54869;PMS5003;40756;-37.950;145.008;2023-04-22T10:33:41;5;4;
54869;PMS5003;40756;-37.950;145.008;2023-04-22T10:36:15;6;6;
54869;PMS5003;40756;-37.950;145.008;2023-04-22T10:39:18;5;5;
54869;PMS5003;40756;-37.950;145.008;2023-04-22T10:41:52;6;6;
54869;PMS5003;40756;-37.950;145.008;2023-04-22T10:44:26;6;6;
54869;PMS5003;40756;-37.950;145.008;2023-04-22T10:46:57;6;6;
54869;PMS5003;40756;-37.950;145.008;2023-04-22T10:49:29;10;10;
54869;PMS5003;40756;-37.950;145.008;2023-04-22T10:51:59;6;6;
54869;PMS5003;40756;-37.950;145.008;2023-04-22T10:55:01;9;7;
54869;PMS5003;40756;-37.950;145.008;2023-04-22T10:57:33;7;7;
54869;PMS5003;40756;-37.950;145.008;2023-04-22T11:00:23;8;7;
54869;PMS5003;40756;-37.950;145.008;2023-04-22T11:03:06;6;6;
54869;PMS5003;40756;-37.950;145.008;2023-04-22T11:05:39;5;5;
54869;PMS5003;40756;-37.950;145.008;2023-04-22T11:08:13;7;5;
54869;PMS5003;40756;-37.950;145.008;2023-04-22T11:10:45;7;7;
54869;PMS5003;40756;-37.950;145.008;2023-04-22T11:13:17;8;8;
54869;PMS5003;40756;-37.950;145.008;2023-04-22T11:15:48;7;7;
54869;PMS5003;40756;-37.950;145.008;2023-04-22T11:18:22;6;6;
54869;PMS5003;40756;-37.950;145.008;2023-04-22T11:20:52;7;7;
54869;PMS5003;40756;-37.950;145.008;2023-04-22T11:23:23;9;9;
54869;PMS5003;40756;-37.950;145.008;2023-04-22T11:25:54;11;10;
54869;PMS5003;40756;-37.950;145.008;2023-04-22T11:28:27;9;9;
54869;PMS5003;40756;-37.950;145.008;2023-04-22T11:31:04;8;8;
54869;PMS5003;40756;-37.950;145.008;2023-04-22T11:33:35;10;10;
54869;PMS5003;40756;-37.950;145.008;2023-04-22T11:36:05;11;10;
54869;PMS5003;40756;-37.950;145.008;2023-04-22T11:38:38;10;10;
54869;PMS5003;40756;-37.950;145.008;2023-04-22T11:41:07;8;8;
54869;PMS5003;40756;-37.950;145.008;2023-04-22T11:43:45;8;8;
54869;PMS5003;40756;-37.950;145.008;2023-04-22T11:46:14;9;9;
54869;PMS5003;40756;-37.950;145.008;2023-04-22T11:48:54;10;9;
54869;PMS5003;40756;-37.950;145.008;2023-04-22T11:51:51;8;8;
54869;PMS5003;40756;-37.950;145.008;2023-04-22T11:54:30;7;7;
54869;PMS5003;40756;-37.950;145.008;2023-04-22T11:57:02;7;7;
54869;PMS5003;40756;-37.950;145.008;2023-04-22T11:59:32;10;9;
54869;PMS5003;40756;-37.950;145.008;2023-04-22T12:02:04;7;7;
54869;PMS5003;40756;-37.950;145.008;2023-04-22T12:04:35;6;6;
54869;PMS5003;40756;-37.950;145.008;2023-04-22T12:07:06;7;7;
54869;PMS5003;40756;-37.950;145.008;2023-04-22T12:09:35;9;8;
54869;PMS5003;40756;-37.950;145.008;2023-04-22T12:12:06;11;10;
54869;PMS5003;40756;-37.950;145.008;2023-04-22T12:14:35;8;8;
54869;PMS5003;40756;-37.950;145.008;2023-04-22T12:17:07;10;10;
54869;PMS5003;40756;-37.950;145.008;2023-04-22T12:19:37;9;9;
54869;PMS5003;40756;-37.950;145.008;2023-04-22T12:22:07;8;8;
54869;PMS5003;40756;-37.950;145.008;2023-04-22T12:24:36;10;10;
54869;PMS5003;40756;-37.950;145.008;2023-04-22T12:27:11;9;9;
54869;PMS5003;40756;-37.950;145.008;2023-04-22T12:29:49;10;9;
54869;PMS5003;40756;-37.950;145.008;2023-04-22T12:32:19;10;10;
54869;PMS5003;40756;-37.950;145.008;2023-04-22T12:34:49;11;11;
54869;PMS5003;40756;-37.950;145.008;2023-04-22T12:37:18;9;8;
54869;PMS5003;40756;-37.950;145.008;2023-04-22T12:39:48;10;10;
54869;PMS5003;40756;-37.950;145.008;2023-04-22T12:42:17;10;9;
54869;PMS5003;40756;-37.950;145.008;2023-04-22T12:44:47;9;8;
54869;PMS5003;40756;-37.950;145.008;2023-04-22T12:47:17;12;11;
54869;PMS5003;40756;-37.950;145.008;2023-04-22T12:49:47;11;10;
54869;PMS5003;40756;-37.950;145.008;2023-04-22T12:52:16;10;10;
54869;PMS5003;40756;-37.950;145.008;2023-04-22T12:54:46;10;10;
54869;PMS5003;40756;-37.950;145.008;2023-04-22T12:57:15;9;9;
54869;PMS5003;40756;-37.950;145.008;2023-04-22T12:59:45;11;11;
54869;PMS5003;40756;-37.950;145.008;2023-04-22T13:02:15;11;10;
54869;PMS5003;40756;-37.950;145.008;2023-04-22T13:04:45;10;10;
54869;PMS5003;40756;-37.950;145.008;2023-04-22T13:07:15;9;9;
54869;PMS5003;40756;-37.950;145.008;2023-04-22T13:09:45;11;11;
54869;PMS5003;40756;-37.950;145.008;2023-04-22T13:12:15;9;9;
54869;PMS5003;40756;-37.950;145.008;2023-04-22T13:14:44;10;9;
54869;PMS5003;40756;-37.950;145.008;2023-04-22T13:17:14;11;11;
54869;PMS5003;40756;-37.950;145.008;2023-04-22T13:19:44;11;10;
54869;PMS5003;40756;-37.950;145.008;2023-04-22T13:22:14;9;9;
54869;PMS5003;40756;-37.950;145.008;2023-04-22T13:24:44;10;10;
54869;PMS5003;40756;-37.950;145.008;2023-04-22T13:27:13;10;10;
54869;PMS5003;40756;-37.950;145.008;2023-04-22T13:29:44;11;10;
54869;PMS5003;40756;-37.950;145.008;2023-04-22T13:32:13;12;11;
54869;PMS5003;40756;-37.950;145.008;2023-04-22T13:34:43;11;11;
54869;PMS5003;40756;-37.950;145.008;2023-04-22T13:37:12;10;10;
54869;PMS5003;40756;-37.950;145.008;2023-04-22T13:39:42;10;10;
54869;PMS5003;40756;-37.950;145.008;2023-04-22T13:42:12;10;10;
54869;PMS5003;40756;-37.950;145.008;2023-04-22T13:44:41;11;10;
54869;PMS5003;40756;-37.950;145.008;2023-04-22T13:47:11;9;9;
54869;PMS5003;40756;-37.950;145.008;2023-04-22T13:49:40;11;11;
54869;PMS5003;40756;-37.950;145.008;2023-04-22T13:52:10;8;8;
54869;PMS5003;40756;-37.950;145.008;2023-04-22T13:54:40;11;11;
54869;PMS5003;40756;-37.950;145.008;2023-04-22T13:57:09;9;9;
54869;PMS5003;40756;-37.950;145.008;2023-04-22T13:59:39;11;11;
54869;PMS5003;40756;-37.950;145.008;2023-04-22T14:02:08;9;9;
54869;PMS5003;40756;-37.950;145.008;2023-04-22T14:04:38;10;9;
54869;PMS5003;40756;-37.950;145.008;2023-04-22T14:07:07;11;11;
54869;PMS5003;40756;-37.950;145.008;2023-04-22T14:09:37;9;8;
54869;PMS5003;40756;-37.950;145.008;2023-04-22T14:12:07;7;7;
54869;PMS5003;40756;-37.950;145.008;2023-04-22T14:14:37;9;9;
54869;PMS5003;40756;-37.950;145.008;2023-04-22T14:17:07;10;10;
54869;PMS5003;40756;-37.950;145.008;2023-04-22T14:19:36;10;10;
54869;PMS5003;40756;-37.950;145.008;2023-04-22T14:22:06;10;10;
54869;PMS5003;40756;-37.950;145.008;2023-04-22T14:24:35;9;9;
54869;PMS5003;40756;-37.950;145.008;2023-04-22T14:27:05;11;10;
54869;PMS5003;40756;-37.950;145.008;2023-04-22T14:29:35;9;9;
54869;PMS5003;40756;-37.950;145.008;2023-04-22T14:32:05;12;11;
54869;PMS5003;40756;-37.950;145.008;2023-04-22T14:34:35;12;11;
54869;PMS5003;40756;-37.950;145.008;2023-04-22T14:37:05;9;9;
54869;PMS5003;40756;-37.950;145.008;2023-04-22T14:39:34;11;11;
54869;PMS5003;40756;-37.950;145.008;2023-04-22T14:42:04;11;11;
54869;PMS5003;40756;-37.950;145.008;2023-04-22T14:44:33;10;10;
54869;PMS5003;40756;-37.950;145.008;2023-04-22T14:47:03;11;10;
54869;PMS5003;40756;-37.950;145.008;2023-04-22T14:49:32;12;11;
54869;PMS5003;40756;-37.950;145.008;2023-04-22T14:52:02;9;8;
54869;PMS5003;40756;-37.950;145.008;2023-04-22T14:54:31;11;10;
54869;PMS5003;40756;-37.950;145.008;2023-04-22T14:57:01;9;8;
54869;PMS5003;40756;-37.950;145.008;2023-04-22T14:59:31;11;11;
54869;PMS5003;40756;-37.950;145.008;2023-04-22T15:02:00;8;8;
54869;PMS5003;40756;-37.950;145.008;2023-04-22T15:04:30;9;8;
54869;PMS5003;40756;-37.950;145.008;2023-04-22T15:06:59;12;11;
54869;PMS5003;40756;-37.950;145.008;2023-04-22T15:09:29;9;9;
54869;PMS5003;40756;-37.950;145.008;2023-04-22T15:11:59;9;9;
54869;PMS5003;40756;-37.950;145.008;2023-04-22T15:14:28;8;8;
54869;PMS5003;40756;-37.950;145.008;2023-04-22T15:16:59;12;11;
54869;PMS5003;40756;-37.950;145.008;2023-04-22T15:19:28;12;11;
54869;PMS5003;40756;-37.950;145.008;2023-04-22T15:21:58;10;10;
54869;PMS5003;40756;-37.950;145.008;2023-04-22T15:24:28;9;9;
54869;PMS5003;40756;-37.950;145.008;2023-04-22T15:26:57;11;10;
54869;PMS5003;40756;-37.950;145.008;2023-04-22T15:29:27;9;9;
54869;PMS5003;40756;-37.950;145.008;2023-04-22T15:31:56;10;9;
54869;PMS5003;40756;-37.950;145.008;2023-04-22T15:34:27;8;8;
54869;PMS5003;40756;-37.950;145.008;2023-04-22T15:36:56;9;9;
54869;PMS5003;40756;-37.950;145.008;2023-04-22T15:39:26;7;7;
54869;PMS5003;40756;-37.950;145.008;2023-04-22T15:41:56;11;10;
54869;PMS5003;40756;-37.950;145.008;2023-04-22T15:44:25;12;11;
54869;PMS5003;40756;-37.950;145.008;2023-04-22T15:46:55;10;10;
54869;PMS5003;40756;-37.950;145.008;2023-04-22T15:49:25;9;9;
54869;PMS5003;40756;-37.950;145.008;2023-04-22T15:51:55;10;9;
54869;PMS5003;40756;-37.950;145.008;2023-04-22T15:54:24;8;8;
54869;PMS5003;40756;-37.950;145.008;2023-04-22T15:56:54;11;11;
54869;PMS5003;40756;-37.950;145.008;2023-04-22T15:59:24;11;9;
54869;PMS5003;40756;-37.950;145.008;2023-04-22T16:01:53;10;9;
54869;PMS5003;40756;-37.950;145.008;2023-04-22T16:04:23;8;8;
54869;PMS5003;40756;-37.950;145.008;2023-04-22T16:06:52;10;9;
54869;PMS5003;40756;-37.950;145.008;2023-04-22T16:09:22;10;9;
54869;PMS5003;40756;-37.950;145.008;2023-04-22T16:11:51;13;12;
54869;PMS5003;40756;-37.950;145.008;2023-04-22T16:14:21;12;11;
54869;PMS5003;40756;-37.950;145.008;2023-04-22T16:16:51;13;12;